Terminal Aerodrome Forecast
Issued by NWS Medford, OR

Home | Current Version | Previous Version | Text Only | Print | Product List | Glossary On
Versions: 1 2 3 4 5 6 7 8 9 10 11 12 13 14 15 16 17 18 19 20
000
FTUS46 KMFR 301733
TAFMFR
TAF
KMFR 301733Z 3018/3118 VRB02KT 1/4SM FG VV002
     FM301900 VRB02KT 3SM BR BKN004
     FM302100 VRB03KT 6SM BR SKC
     FM311000 00000KT 1/4SM FG OVC002=

USA.gov is the U.S. government's official web portal to all federal, state and local government web resources and services.